Little, Kentucky
Current Conditions -  °F | °C
As of 10:53 AM on Wednesday 26 Nov 2014 (Local Time) from KJKL Reporting Station
Overcast Overcast  
Wind Chill: 38°   Ceiling: 4900
Heat Index: 38°   Visibility: 10mi
Dew Point: 28°   Wind: 3mph
Humidity: 68%   Direction: 270°W
Pressure: 30.06"   Gusts: NA
Location:  37.532°N, 83.3068°W
Report Text: KJKL 261553Z AUTO 27003KT 10SM OVC049 03/M02 A3006 RMK AO2 SLP185 T00331022
Loading
Personal Weather Stations






























Interactive Weather Map New forecast layout! Learn more

10-Day Weather Forecast

Advertisements
Track Severe Weather on mobile